sensor_id;sensor_type;location;lat;lon;timestamp;pressure;altitude;pressure_sealevel;temperature;humidity
45255;BME280;30989;52.078;21.014;2023-11-22T00:02:04;162996.34;;;-2.88;100.00
45255;BME280;30989;52.078;21.014;2023-11-22T00:04:29;162987.06;;;-2.92;100.00
45255;BME280;30989;52.078;21.014;2023-11-22T00:06:54;162988.41;;;-2.91;100.00
45255;BME280;30989;52.078;21.014;2023-11-22T00:09:20;162996.34;;;-2.88;100.00
45255;BME280;30989;52.078;21.014;2023-11-22T00:11:48;162973.81;;;-2.97;100.00
45255;BME280;30989;52.078;21.014;2023-11-22T00:14:14;162992.38;;;-2.89;100.00
45255;BME280;30989;52.078;21.014;2023-11-22T00:16:40;162976.47;;;-2.96;100.00
45255;BME280;30989;52.078;21.014;2023-11-22T00:19:05;162980.44;;;-2.94;100.00
45255;BME280;30989;52.078;21.014;2023-11-22T00:21:32;162971.16;;;-2.98;100.00
45255;BME280;30989;52.078;21.014;2023-11-22T00:23:57;162956.56;;;-3.03;100.00
45255;BME280;30989;52.078;21.014;2023-11-22T00:26:23;162971.16;;;-2.98;100.00
45255;BME280;30989;52.078;21.014;2023-11-22T00:28:54;162951.25;;;-3.05;100.00
45255;BME280;30989;52.078;21.014;2023-11-22T00:31:20;162979.09;;;-2.95;100.00
45255;BME280;30989;52.078;21.014;2023-11-22T00:33:46;162960.53;;;-3.02;100.00
45255;BME280;30989;52.078;21.014;2023-11-22T00:36:11;162973.81;;;-2.97;100.00
45255;BME280;30989;52.078;21.014;2023-11-22T00:38:37;162943.28;;;-3.08;100.00
45255;BME280;30989;52.078;21.014;2023-11-22T00:41:04;162968.50;;;-2.99;100.00
45255;BME280;30989;52.078;21.014;2023-11-22T00:43:30;162964.53;;;-3.00;100.00
45255;BME280;30989;52.078;21.014;2023-11-22T00:45:56;162965.84;;;-3.00;100.00
45255;BME280;30989;52.078;21.014;2023-11-22T00:48:22;162941.97;;;-3.09;100.00
45255;BME280;30989;52.078;21.014;2023-11-22T00:50:48;162960.53;;;-3.02;100.00
45255;BME280;30989;52.078;21.014;2023-11-22T00:53:13;162959.22;;;-3.02;100.00
45255;BME280;30989;52.078;21.014;2023-11-22T00:55:40;162951.25;;;-3.05;100.00
45255;BME280;30989;52.078;21.014;2023-11-22T00:58:08;162948.59;;;-3.06;100.00
45255;BME280;30989;52.078;21.014;2023-11-22T01:00:34;162947.28;;;-3.07;100.00
45255;BME280;30989;52.078;21.014;2023-11-22T01:03:00;162926.06;;;-3.15;100.00
45255;BME280;30989;52.078;21.014;2023-11-22T01:05:25;162951.25;;;-3.05;100.00
45255;BME280;30989;52.078;21.014;2023-11-22T01:07:51;162949.94;;;-3.06;100.00
45255;BME280;30989;52.078;21.014;2023-11-22T01:10:16;162936.66;;;-3.11;100.00
45255;BME280;30989;52.078;21.014;2023-11-22T01:12:42;162940.63;;;-3.09;100.00
45255;BME280;30989;52.078;21.014;2023-11-22T01:15:08;162940.63;;;-3.09;100.00
45255;BME280;30989;52.078;21.014;2023-11-22T01:17:34;162939.31;;;-3.10;100.00
45255;BME280;30989;52.078;21.014;2023-11-22T01:20:04;162939.31;;;-3.10;100.00
45255;BME280;30989;52.078;21.014;2023-11-22T01:22:29;162919.41;;;-3.17;100.00
45255;BME280;30989;52.078;21.014;2023-11-22T01:24:57;162935.34;;;-3.11;100.00
45255;BME280;30989;52.078;21.014;2023-11-22T01:27:23;162928.69;;;-3.14;100.00
45255;BME280;30989;52.078;21.014;2023-11-22T01:29:49;162916.75;;;-3.18;100.00
45255;BME280;30989;52.078;21.014;2023-11-22T01:32:16;162911.47;;;-3.20;100.00
45255;BME280;30989;52.078;21.014;2023-11-22T01:34:42;162911.47;;;-3.20;100.00
45255;BME280;30989;52.078;21.014;2023-11-22T01:37:07;162906.16;;;-3.22;100.00
45255;BME280;30989;52.078;21.014;2023-11-22T01:39:33;162899.53;;;-3.25;100.00
45255;BME280;30989;52.078;21.014;2023-11-22T01:41:58;162892.88;;;-3.28;100.00
45255;BME280;30989;52.078;21.014;2023-11-22T01:44:24;162873.00;;;-3.35;100.00
45255;BME280;30989;52.078;21.014;2023-11-22T01:46:52;162878.31;;;-3.33;100.00
45255;BME280;30989;52.078;21.014;2023-11-22T01:49:17;162886.25;;;-3.30;100.00
45255;BME280;30989;52.078;21.014;2023-11-22T01:51:43;162873.00;;;-3.35;100.00
45255;BME280;30989;52.078;21.014;2023-11-22T01:54:10;162880.94;;;-3.32;100.00
45255;BME280;30989;52.078;21.014;2023-11-22T01:56:37;162887.59;;;-3.30;100.00
45255;BME280;30989;52.078;21.014;2023-11-22T01:59:04;162863.72;;;-3.39;100.00
45255;BME280;30989;52.078;21.014;2023-11-22T02:01:30;162876.97;;;-3.34;100.00
45255;BME280;30989;52.078;21.014;2023-11-22T02:03:57;162878.31;;;-3.33;100.00
45255;BME280;30989;52.078;21.014;2023-11-22T02:06:23;162876.97;;;-3.34;100.00
45255;BME280;30989;52.078;21.014;2023-11-22T02:08:49;162865.03;;;-3.38;100.00
45255;BME280;30989;52.078;21.014;2023-11-22T02:11:17;162855.75;;;-3.42;100.00
45255;BME280;30989;52.078;21.014;2023-11-22T02:13:51;162869.00;;;-3.37;100.00
45255;BME280;30989;52.078;21.014;2023-11-22T02:16:17;162843.81;;;-3.46;100.00
45255;BME280;30989;52.078;21.014;2023-11-22T02:18:44;162867.69;;;-3.37;100.00
45255;BME280;30989;52.078;21.014;2023-11-22T02:21:10;162845.16;;;-3.46;100.00
45255;BME280;30989;52.078;21.014;2023-11-22T02:23:36;162857.06;;;-3.41;100.00
45255;BME280;30989;52.078;21.014;2023-11-22T02:26:02;162827.91;;;-3.52;100.00
45255;BME280;30989;52.078;21.014;2023-11-22T02:28:28;162835.84;;;-3.49;100.00
45255;BME280;30989;52.078;21.014;2023-11-22T02:30:53;162827.91;;;-3.52;100.00
45255;BME280;30989;52.078;21.014;2023-11-22T02:33:21;162805.34;;;-3.61;100.00
45255;BME280;30989;52.078;21.014;2023-11-22T02:35:47;162819.94;;;-3.55;100.00
45255;BME280;30989;52.078;21.014;2023-11-22T02:38:12;162814.66;;;-3.58;100.00
45255;BME280;30989;52.078;21.014;2023-11-22T02:40:38;162812.00;;;-3.59;100.00
45255;BME280;30989;52.078;21.014;2023-11-22T02:43:03;162812.00;;;-3.59;100.00
45255;BME280;30989;52.078;21.014;2023-11-22T02:45:34;162801.38;;;-3.63;100.00
45255;BME280;30989;52.078;21.014;2023-11-22T02:48:00;162798.72;;;-3.64;100.00
45255;BME280;30989;52.078;21.014;2023-11-22T02:50:29;162793.44;;;-3.66;100.00
45255;BME280;30989;52.078;21.014;2023-11-22T02:52:54;162801.38;;;-3.63;100.00
45255;BME280;30989;52.078;21.014;2023-11-22T02:55:20;162801.38;;;-3.63;100.00
45255;BME280;30989;52.078;21.014;2023-11-22T02:57:46;162788.13;;;-3.68;100.00
45255;BME280;30989;52.078;21.014;2023-11-22T03:00:11;162806.69;;;-3.61;100.00
45255;BME280;30989;52.078;21.014;2023-11-22T03:02:42;162808.00;;;-3.60;100.00
45255;BME280;30989;52.078;21.014;2023-11-22T03:05:08;162772.22;;;-3.74;100.00
45255;BME280;30989;52.078;21.014;2023-11-22T03:07:35;162785.47;;;-3.69;100.00
45255;BME280;30989;52.078;21.014;2023-11-22T03:10:02;162786.78;;;-3.68;100.00
45255;BME280;30989;52.078;21.014;2023-11-22T03:12:28;162776.19;;;-3.72;100.00
45255;BME280;30989;52.078;21.014;2023-11-22T03:14:53;162768.22;;;-3.75;100.00
45255;BME280;30989;52.078;21.014;2023-11-22T03:17:24;162766.91;;;-3.76;100.00
45255;BME280;30989;52.078;21.014;2023-11-22T03:19:50;162772.22;;;-3.74;100.00
45255;BME280;30989;52.078;21.014;2023-11-22T03:22:15;162754.97;;;-3.80;100.00
45255;BME280;30989;52.078;21.014;2023-11-22T03:24:41;162756.31;;;-3.80;100.00
45255;BME280;30989;52.078;21.014;2023-11-22T03:27:07;162715.19;;;-3.96;100.00
45255;BME280;30989;52.078;21.014;2023-11-22T03:29:33;162732.44;;;-3.89;100.00
45255;BME280;30989;52.078;21.014;2023-11-22T03:32:00;162719.19;;;-3.94;100.00
45255;BME280;30989;52.078;21.014;2023-11-22T03:34:26;162732.44;;;-3.89;100.00
45255;BME280;30989;52.078;21.014;2023-11-22T03:36:51;162732.44;;;-3.89;100.00
45255;BME280;30989;52.078;21.014;2023-11-22T03:39:17;162728.47;;;-3.91;100.00
45255;BME280;30989;52.078;21.014;2023-11-22T03:41:42;162721.84;;;-3.93;100.00
45255;BME280;30989;52.078;21.014;2023-11-22T03:44:09;162692.66;;;-4.04;100.00
45255;BME280;30989;52.078;21.014;2023-11-22T03:46:35;162700.63;;;-4.01;100.00
45255;BME280;30989;52.078;21.014;2023-11-22T03:49:05;162692.66;;;-4.04;100.00
45255;BME280;30989;52.078;21.014;2023-11-22T03:51:35;162711.22;;;-3.97;100.00
45255;BME280;30989;52.078;21.014;2023-11-22T03:54:01;162705.94;;;-3.99;100.00
45255;BME280;30989;52.078;21.014;2023-11-22T03:56:28;162692.66;;;-4.04;100.00
45255;BME280;30989;52.078;21.014;2023-11-22T03:58:54;162688.69;;;-4.06;100.00
45255;BME280;30989;52.078;21.014;2023-11-22T04:01:20;162664.84;;;-4.15;100.00
45255;BME280;30989;52.078;21.014;2023-11-22T04:03:48;162667.50;;;-4.14;100.00
45255;BME280;30989;52.078;21.014;2023-11-22T04:06:18;162658.22;;;-4.17;100.00
45255;BME280;30989;52.078;21.014;2023-11-22T04:08:45;162647.59;;;-4.22;100.00
45255;BME280;30989;52.078;21.014;2023-11-22T04:11:11;162650.25;;;-4.20;100.00
45255;BME280;30989;52.078;21.014;2023-11-22T04:13:37;162648.94;;;-4.21;100.00
45255;BME280;30989;52.078;21.014;2023-11-22T04:16:03;162634.34;;;-4.27;100.00
45255;BME280;30989;52.078;21.014;2023-11-22T04:18:29;162607.84;;;-4.37;100.00
45255;BME280;30989;52.078;21.014;2023-11-22T04:20:55;162623.75;;;-4.31;100.00
45255;BME280;30989;52.078;21.014;2023-11-22T04:23:23;162602.53;;;-4.39;100.00
45255;BME280;30989;52.078;21.014;2023-11-22T04:25:49;162568.09;;;-4.52;100.00
45255;BME280;30989;52.078;21.014;2023-11-22T04:28:15;162581.34;;;-4.47;100.00
45255;BME280;30989;52.078;21.014;2023-11-22T04:30:40;162548.22;;;-4.60;100.00
45255;BME280;30989;52.078;21.014;2023-11-22T04:33:07;162548.22;;;-4.60;100.00
45255;BME280;30989;52.078;21.014;2023-11-22T04:35:32;162538.94;;;-4.63;100.00
45255;BME280;30989;52.078;21.014;2023-11-22T04:38:02;162525.69;;;-4.68;100.00
45255;BME280;30989;52.078;21.014;2023-11-22T04:40:29;162377.28;;;-5.25;100.00
45255;BME280;30989;52.078;21.014;2023-11-22T04:42:55;162484.63;;;-4.84;100.00
45255;BME280;30989;52.078;21.014;2023-11-22T04:45:21;162485.94;;;-4.83;100.00
45255;BME280;30989;52.078;21.014;2023-11-22T04:47:46;162444.88;;;-4.99;100.00
45255;BME280;30989;52.078;21.014;2023-11-22T04:50:12;162459.44;;;-4.94;100.00
45255;BME280;30989;52.078;21.014;2023-11-22T04:52:38;162440.91;;;-5.01;100.00
45255;BME280;30989;52.078;21.014;2023-11-22T04:55:03;162430.31;;;-5.05;100.00
45255;BME280;30989;52.078;21.014;2023-11-22T04:57:29;162394.56;;;-5.18;100.00
45255;BME280;30989;52.078;21.014;2023-11-22T04:59:55;162401.19;;;-5.16;100.00
45255;BME280;30989;52.078;21.014;2023-11-22T05:02:20;162389.22;;;-5.21;100.00
45255;BME280;30989;52.078;21.014;2023-11-22T05:04:46;162379.94;;;-5.24;100.00
45255;BME280;30989;52.078;21.014;2023-11-22T05:07:15;162352.13;;;-5.35;100.00
45255;BME280;30989;52.078;21.014;2023-11-22T05:09:41;162340.22;;;-5.39;100.00
45255;BME280;30989;52.078;21.014;2023-11-22T05:12:09;162360.06;;;-5.32;100.00
45255;BME280;30989;52.078;21.014;2023-11-22T05:14:35;162313.72;;;-5.49;100.00
45255;BME280;30989;52.078;21.014;2023-11-22T05:17:00;162326.97;;;-5.44;100.00
45255;BME280;30989;52.078;21.014;2023-11-22T05:19:26;162319.03;;;-5.47;100.00
45255;BME280;30989;52.078;21.014;2023-11-22T05:21:51;162289.88;;;-5.59;100.00
45255;BME280;30989;52.078;21.014;2023-11-22T05:24:17;162300.47;;;-5.55;100.00
45255;BME280;30989;52.078;21.014;2023-11-22T05:26:42;162296.50;;;-5.56;100.00
45255;BME280;30989;52.078;21.014;2023-11-22T05:29:08;162293.88;;;-5.57;100.00
45255;BME280;30989;52.078;21.014;2023-11-22T05:31:35;162284.59;;;-5.61;100.00
45255;BME280;30989;52.078;21.014;2023-11-22T05:34:00;162275.31;;;-5.64;100.00
45255;BME280;30989;52.078;21.014;2023-11-22T05:36:26;162268.72;;;-5.67;100.00
45255;BME280;30989;52.078;21.014;2023-11-22T05:38:51;162266.06;;;-5.68;100.00
45255;BME280;30989;52.078;21.014;2023-11-22T05:41:17;162258.13;;;-5.71;100.00
45255;BME280;30989;52.078;21.014;2023-11-22T05:43:42;162252.81;;;-5.73;100.00
45255;BME280;30989;52.078;21.014;2023-11-22T05:46:08;162229.00;;;-5.82;100.00
45255;BME280;30989;52.078;21.014;2023-11-22T05:48:34;162240.91;;;-5.77;100.00
45255;BME280;30989;52.078;21.014;2023-11-22T05:50:59;162186.69;;;-5.98;100.00
45255;BME280;30989;52.078;21.014;2023-11-22T05:53:25;162236.94;;;-5.79;100.00
45255;BME280;30989;52.078;21.014;2023-11-22T05:55:50;162236.94;;;-5.79;100.00
45255;BME280;30989;52.078;21.014;2023-11-22T05:58:18;162226.34;;;-5.83;100.00
45255;BME280;30989;52.078;21.014;2023-11-22T06:00:44;162214.44;;;-5.88;100.00
45255;BME280;30989;52.078;21.014;2023-11-22T06:03:11;162207.88;;;-5.90;100.00
45255;BME280;30989;52.078;21.014;2023-11-22T06:05:38;162194.63;;;-5.95;100.00
45255;BME280;30989;52.078;21.014;2023-11-22T06:08:04;162176.09;;;-6.02;100.00
45255;BME280;30989;52.078;21.014;2023-11-22T06:10:29;162170.81;;;-6.04;100.00
45255;BME280;30989;52.078;21.014;2023-11-22T06:12:55;162178.75;;;-6.01;100.00
45255;BME280;30989;52.078;21.014;2023-11-22T06:15:20;162180.06;;;-6.01;100.00
45255;BME280;30989;52.078;21.014;2023-11-22T06:17:47;162177.44;;;-6.02;100.00
45255;BME280;30989;52.078;21.014;2023-11-22T06:20:16;162170.81;;;-6.04;100.00
45255;BME280;30989;52.078;21.014;2023-11-22T06:22:41;162161.53;;;-6.08;100.00
45255;BME280;30989;52.078;21.014;2023-11-22T06:25:13;162164.19;;;-6.07;100.00
45255;BME280;30989;52.078;21.014;2023-11-22T06:27:39;162164.19;;;-6.07;100.00
45255;BME280;30989;52.078;21.014;2023-11-22T06:30:06;162160.22;;;-6.08;100.00
45255;BME280;30989;52.078;21.014;2023-11-22T06:32:32;162166.84;;;-6.06;100.00
45255;BME280;30989;52.078;21.014;2023-11-22T06:34:58;162143.00;;;-6.15;100.00
45255;BME280;30989;52.078;21.014;2023-11-22T06:37:24;162166.84;;;-6.06;100.00
45255;BME280;30989;52.078;21.014;2023-11-22T06:39:49;162170.81;;;-6.04;100.00
45255;BME280;30989;52.078;21.014;2023-11-22T06:42:16;162170.81;;;-6.04;100.00
45255;BME280;30989;52.078;21.014;2023-11-22T06:44:42;162177.44;;;-6.02;100.00
45255;BME280;30989;52.078;21.014;2023-11-22T06:47:08;162178.75;;;-6.01;100.00
45255;BME280;30989;52.078;21.014;2023-11-22T06:49:34;162181.41;;;-6.00;100.00
45255;BME280;30989;52.078;21.014;2023-11-22T06:51:59;162168.16;;;-6.05;100.00
45255;BME280;30989;52.078;21.014;2023-11-22T06:54:25;162168.16;;;-6.05;100.00
45255;BME280;30989;52.078;21.014;2023-11-22T06:56:50;162199.94;;;-5.93;100.00
45255;BME280;30989;52.078;21.014;2023-11-22T06:59:17;162201.25;;;-5.93;100.00
45255;BME280;30989;52.078;21.014;2023-11-22T07:01:43;162201.25;;;-5.93;100.00
45255;BME280;30989;52.078;21.014;2023-11-22T07:04:08;162213.13;;;-5.88;100.00
45255;BME280;30989;52.078;21.014;2023-11-22T07:06:34;162210.50;;;-5.89;100.00
45255;BME280;30989;52.078;21.014;2023-11-22T07:09:01;162219.72;;;-5.86;100.00
45255;BME280;30989;52.078;21.014;2023-11-22T07:11:27;162222.38;;;-5.85;100.00
45255;BME280;30989;52.078;21.014;2023-11-22T07:13:56;162213.13;;;-5.88;100.00
45255;BME280;30989;52.078;21.014;2023-11-22T07:16:23;162229.00;;;-5.82;100.00
45255;BME280;30989;52.078;21.014;2023-11-22T07:18:50;162235.63;;;-5.79;100.00
45255;BME280;30989;52.078;21.014;2023-11-22T07:21:15;162258.13;;;-5.71;100.00
45255;BME280;30989;52.078;21.014;2023-11-22T07:23:42;162283.28;;;-5.61;100.00
45255;BME280;30989;52.078;21.014;2023-11-22T07:26:11;162324.31;;;-5.45;100.00
45255;BME280;30989;52.078;21.014;2023-11-22T07:28:40;162342.84;;;-5.38;100.00
45255;BME280;30989;52.078;21.014;2023-11-22T07:31:08;162366.69;;;-5.29;100.00
45255;BME280;30989;52.078;21.014;2023-11-22T07:33:34;162397.19;;;-5.17;100.00
45255;BME280;30989;52.078;21.014;2023-11-22T07:36:00;162382.59;;;-5.23;100.00
45255;BME280;30989;52.078;21.014;2023-11-22T07:38:26;162409.13;;;-5.13;100.00
45255;BME280;30989;52.078;21.014;2023-11-22T07:40:52;162407.78;;;-5.13;100.00
45255;BME280;30989;52.078;21.014;2023-11-22T07:43:18;162414.41;;;-5.11;100.00
45255;BME280;30989;52.078;21.014;2023-11-22T07:45:44;162399.84;;;-5.16;100.00
45255;BME280;30989;52.078;21.014;2023-11-22T07:48:10;162425.00;;;-5.07;100.00
45255;BME280;30989;52.078;21.014;2023-11-22T07:50:39;162436.94;;;-5.02;100.00
45255;BME280;30989;52.078;21.014;2023-11-22T07:53:09;162417.06;;;-5.10;100.00
45255;BME280;30989;52.078;21.014;2023-11-22T07:55:37;162444.88;;;-4.99;100.00
45255;BME280;30989;52.078;21.014;2023-11-22T07:58:03;162429.00;;;-5.05;100.00
45255;BME280;30989;52.078;21.014;2023-11-22T08:00:32;162471.38;;;-4.89;100.00
45255;BME280;30989;52.078;21.014;2023-11-22T08:03:02;162481.97;;;-4.85;100.00
45255;BME280;30989;52.078;21.014;2023-11-22T08:05:31;162493.91;;;-4.80;100.00
45255;BME280;30989;52.078;21.014;2023-11-22T08:08:05;162500.53;;;-4.78;100.00
45255;BME280;30989;52.078;21.014;2023-11-22T08:10:36;162491.25;;;-4.81;100.00
45255;BME280;30989;52.078;21.014;2023-11-22T08:13:02;162499.19;;;-4.78;100.00
45255;BME280;30989;52.078;21.014;2023-11-22T08:15:28;162504.50;;;-4.76;100.00
45255;BME280;30989;52.078;21.014;2023-11-22T08:17:54;162527.00;;;-4.68;100.00
45255;BME280;30989;52.078;21.014;2023-11-22T08:20:19;162523.03;;;-4.69;100.00
45255;BME280;30989;52.078;21.014;2023-11-22T08:22:46;162528.34;;;-4.67;100.00
45255;BME280;30989;52.078;21.014;2023-11-22T08:25:12;162560.13;;;-4.55;100.00
45255;BME280;30989;52.078;21.014;2023-11-22T08:27:39;162605.19;;;-4.38;100.00
45255;BME280;30989;52.078;21.014;2023-11-22T08:30:07;162613.16;;;-4.35;100.00
45255;BME280;30989;52.078;21.014;2023-11-22T08:32:35;162621.09;;;-4.32;100.00
45255;BME280;30989;52.078;21.014;2023-11-22T08:35:00;162615.78;;;-4.34;100.00
45255;BME280;30989;52.078;21.014;2023-11-22T08:37:26;162663.50;;;-4.15;100.00
45255;BME280;30989;52.078;21.014;2023-11-22T08:39:52;162697.97;;;-4.02;100.00
45255;BME280;30989;52.078;21.014;2023-11-22T08:42:17;162737.75;;;-3.87;100.00
45255;BME280;30989;52.078;21.014;2023-11-22T08:44:43;162754.97;;;-3.80;100.00
45255;BME280;30989;52.078;21.014;2023-11-22T08:47:08;162762.94;;;-3.77;100.00
45255;BME280;30989;52.078;21.014;2023-11-22T08:49:34;162749.69;;;-3.82;100.00
45255;BME280;30989;52.078;21.014;2023-11-22T08:52:00;162781.50;;;-3.70;100.00
45255;BME280;30989;52.078;21.014;2023-11-22T08:54:28;162766.91;;;-3.76;100.00
45255;BME280;30989;52.078;21.014;2023-11-22T08:56:54;162809.34;;;-3.60;100.00
45255;BME280;30989;52.078;21.014;2023-11-22T08:59:23;162834.53;;;-3.50;100.00
45255;BME280;30989;52.078;21.014;2023-11-22T09:01:48;162827.91;;;-3.52;100.00
45255;BME280;30989;52.078;21.014;2023-11-22T09:04:14;162817.28;;;-3.57;100.00
45255;BME280;30989;52.078;21.014;2023-11-22T09:06:40;162809.34;;;-3.60;100.00
45255;BME280;30989;52.078;21.014;2023-11-22T09:09:06;162822.59;;;-3.54;100.00
45255;BME280;30989;52.078;21.014;2023-11-22T09:11:31;162826.56;;;-3.53;100.00
45255;BME280;30989;52.078;21.014;2023-11-22T09:13:59;162855.75;;;-3.42;100.00
45255;BME280;30989;52.078;21.014;2023-11-22T09:16:27;162891.56;;;-3.28;100.00
45255;BME280;30989;52.078;21.014;2023-11-22T09:18:52;162924.72;;;-3.15;100.00
45255;BME280;30989;52.078;21.014;2023-11-22T09:21:21;162927.38;;;-3.14;100.00
45255;BME280;30989;52.078;21.014;2023-11-22T09:23:46;162989.72;;;-2.90;100.00
45255;BME280;30989;52.078;21.014;2023-11-22T09:26:13;163018.91;;;-2.79;100.00
45255;BME280;30989;52.078;21.014;2023-11-22T09:28:40;163020.25;;;-2.79;100.00
45255;BME280;30989;52.078;21.014;2023-11-22T09:31:08;163005.66;;;-2.84;99.15
45255;BME280;30989;52.078;21.014;2023-11-22T09:33:34;162961.88;;;-3.01;100.00
45255;BME280;30989;52.078;21.014;2023-11-22T09:35:59;162992.38;;;-2.89;100.00
45255;BME280;30989;52.078;21.014;2023-11-22T09:38:25;162996.34;;;-2.88;100.00
45255;BME280;30989;52.078;21.014;2023-11-22T09:40:50;163006.97;;;-2.84;100.00
45255;BME280;30989;52.078;21.014;2023-11-22T09:43:18;163014.94;;;-2.81;100.00
45255;BME280;30989;52.078;21.014;2023-11-22T09:45:48;163040.16;;;-2.71;100.00
45255;BME280;30989;52.078;21.014;2023-11-22T09:48:18;163056.06;;;-2.65;100.00
45255;BME280;30989;52.078;21.014;2023-11-22T09:51:04;163058.72;;;-2.64;100.00
45255;BME280;30989;52.078;21.014;2023-11-22T09:53:31;163087.91;;;-2.53;100.00
45255;BME280;30989;52.078;21.014;2023-11-22T09:56:00;163105.16;;;-2.46;100.00
45255;BME280;30989;52.078;21.014;2023-11-22T09:58:29;163133.03;;;-2.36;100.00
45255;BME280;30989;52.078;21.014;2023-11-22T10:00:56;163179.50;;;-2.18;100.00
45255;BME280;30989;52.078;21.014;2023-11-22T10:03:23;163220.66;;;-2.02;100.00
45255;BME280;30989;52.078;21.014;2023-11-22T10:05:49;163251.19;;;-1.90;100.00
45255;BME280;30989;52.078;21.014;2023-11-22T10:08:14;163322.91;;;-1.63;100.00
45255;BME280;30989;52.078;21.014;2023-11-22T10:10:42;163526.16;;;-0.85;100.00
45255;BME280;30989;52.078;21.014;2023-11-22T10:13:11;163760.13;;;0.04;100.00
45255;BME280;30989;52.078;21.014;2023-11-22T10:15:38;163999.56;;;0.95;100.00
45255;BME280;30989;52.078;21.014;2023-11-22T10:18:03;164140.63;;;1.49;93.89
45255;BME280;30989;52.078;21.014;2023-11-22T10:20:38;164228.50;;;1.83;93.00
45255;BME280;30989;52.078;21.014;2023-11-22T10:23:11;164244.47;;;1.89;82.05
45255;BME280;30989;52.078;21.014;2023-11-22T10:25:46;164171.25;;;1.61;83.52
45255;BME280;30989;52.078;21.014;2023-11-22T10:28:18;164168.59;;;1.60;82.48
45255;BME280;30989;52.078;21.014;2023-11-22T10:30:48;164195.22;;;1.70;89.63
45255;BME280;30989;52.078;21.014;2023-11-22T10:33:15;164329.69;;;2.21;88.43
45255;BME280;30989;52.078;21.014;2023-11-22T10:35:46;164473.56;;;2.76;90.61
45255;BME280;30989;52.078;21.014;2023-11-22T10:38:15;164725.44;;;3.72;91.27
45255;BME280;30989;52.078;21.014;2023-11-22T10:40:41;164806.78;;;4.03;79.60
45255;BME280;30989;52.078;21.014;2023-11-22T10:43:11;164857.44;;;4.22;87.97
45255;BME280;30989;52.078;21.014;2023-11-22T10:45:37;165028.22;;;4.88;87.72
45255;BME280;30989;52.078;21.014;2023-11-22T10:48:04;165137.69;;;5.29;83.03
45255;BME280;30989;52.078;21.014;2023-11-22T10:50:30;165065.56;;;5.02;76.01
45255;BME280;30989;52.078;21.014;2023-11-22T10:52:57;164998.84;;;4.76;79.07
45255;BME280;30989;52.078;21.014;2023-11-22T10:55:31;165001.53;;;4.77;80.32
45255;BME280;30989;52.078;21.014;2023-11-22T10:57:59;165038.88;;;4.92;81.81
45255;BME280;30989;52.078;21.014;2023-11-22T11:00:27;165169.72;;;5.41;82.27
45255;BME280;30989;52.078;21.014;2023-11-22T11:03:01;165299.25;;;5.91;81.29
45255;BME280;30989;52.078;21.014;2023-11-22T11:05:31;165324.63;;;6.00;78.00
45255;BME280;30989;52.078;21.014;2023-11-22T11:08:09;165316.63;;;5.97;76.96
45255;BME280;30989;52.078;21.014;2023-11-22T11:10:44;165269.84;;;5.79;77.18
45255;BME280;30989;52.078;21.014;2023-11-22T11:13:12;165269.84;;;5.79;76.38
45255;BME280;30989;52.078;21.014;2023-11-22T11:15:40;165354.00;;;6.11;77.23
45255;BME280;30989;52.078;21.014;2023-11-22T11:18:10;165415.44;;;6.35;74.94
45255;BME280;30989;52.078;21.014;2023-11-22T11:20:54;165474.22;;;6.57;77.21
45255;BME280;30989;52.078;21.014;2023-11-22T11:23:23;165551.69;;;6.87;75.94
45255;BME280;30989;52.078;21.014;2023-11-22T11:26:09;165599.81;;;7.05;75.33
45255;BME280;30989;52.078;21.014;2023-11-22T11:28:43;165565.06;;;6.92;73.03
45255;BME280;30989;52.078;21.014;2023-11-22T11:31:13;165475.56;;;6.58;73.33
45255;BME280;30989;52.078;21.014;2023-11-22T11:36:27;165420.78;;;6.37;68.67
45255;BME280;30989;52.078;21.014;2023-11-22T11:38:54;165204.41;;;5.55;68.04
45255;BME280;30989;52.078;21.014;2023-11-22T11:41:26;165057.56;;;4.99;71.54
45255;BME280;30989;52.078;21.014;2023-11-22T11:43:52;165016.19;;;4.83;72.10
45255;BME280;30989;52.078;21.014;2023-11-22T11:46:17;164948.16;;;4.57;70.62
45255;BME280;30989;52.078;21.014;2023-11-22T11:48:44;164772.09;;;3.90;65.86
45255;BME280;30989;52.078;21.014;2023-11-22T11:51:13;164586.81;;;3.19;70.15
45255;BME280;30989;52.078;21.014;2023-11-22T11:53:39;164458.91;;;2.71;72.35
45255;BME280;30989;52.078;21.014;2023-11-22T11:56:05;164377.63;;;2.40;73.79
45255;BME280;30989;52.078;21.014;2023-11-22T11:58:32;164257.78;;;1.94;72.31
45255;BME280;30989;52.078;21.014;2023-11-22T12:00:58;164132.63;;;1.46;74.80
45255;BME280;30989;52.078;21.014;2023-11-22T12:03:24;164046.13;;;1.13;75.59
45255;BME280;30989;52.078;21.014;2023-11-22T12:05:49;163955.66;;;0.79;76.77
45255;BME280;30989;52.078;21.014;2023-11-22T12:08:15;163905.09;;;0.59;76.83
45255;BME280;30989;52.078;21.014;2023-11-22T12:10:43;163849.25;;;0.38;76.72
45255;BME280;30989;52.078;21.014;2023-11-22T12:13:08;163753.50;;;0.02;76.91
45255;BME280;30989;52.078;21.014;2023-11-22T12:15:34;163669.69;;;-0.30;77.98
45255;BME280;30989;52.078;21.014;2023-11-22T12:18:03;163605.88;;;-0.55;78.82
45255;BME280;30989;52.078;21.014;2023-11-22T12:20:29;163570.00;;;-0.69;79.45
45255;BME280;30989;52.078;21.014;2023-11-22T12:23:00;163534.13;;;-0.82;79.53
45255;BME280;30989;52.078;21.014;2023-11-22T12:25:29;163506.22;;;-0.93;80.37
45255;BME280;30989;52.078;21.014;2023-11-22T12:27:55;163488.94;;;-1.00;80.51
45255;BME280;30989;52.078;21.014;2023-11-22T12:30:36;163462.38;;;-1.10;81.10
45255;BME280;30989;52.078;21.014;2023-11-22T12:33:05;163403.91;;;-1.32;78.90
45255;BME280;30989;52.078;21.014;2023-11-22T12:35:33;163406.56;;;-1.31;80.97